sensor_id;sensor_type;location;lat;lon;timestamp;P1;durP1;ratioP1;P2;durP2;ratioP2
69369;SDS011;56530;42.640;23.372;2022-09-09T00:01:46;8.27;;;7.43;;
69369;SDS011;56530;42.640;23.372;2022-09-09T00:04:19;8.98;;;7.85;;
69369;SDS011;56530;42.640;23.372;2022-09-09T00:07:04;11.02;;;8.43;;
69369;SDS011;56530;42.640;23.372;2022-09-09T00:09:45;8.90;;;7.93;;
69369;SDS011;56530;42.640;23.372;2022-09-09T00:15:25;8.25;;;7.38;;
69369;SDS011;56530;42.640;23.372;2022-09-09T00:17:56;12.38;;;7.75;;
69369;SDS011;56530;42.640;23.372;2022-09-09T00:28:26;9.77;;;8.88;;
69369;SDS011;56530;42.640;23.372;2022-09-09T00:30:52;13.32;;;8.13;;
69369;SDS011;56530;42.640;23.372;2022-09-09T00:33:20;15.00;;;8.82;;
69369;SDS011;56530;42.640;23.372;2022-09-09T00:35:49;10.57;;;7.90;;
69369;SDS011;56530;42.640;23.372;2022-09-09T00:38:21;8.75;;;7.72;;
69369;SDS011;56530;42.640;23.372;2022-09-09T00:40:50;8.52;;;7.72;;
69369;SDS011;56530;42.640;23.372;2022-09-09T00:48:51;13.68;;;7.43;;
69369;SDS011;56530;42.640;23.372;2022-09-09T00:56:56;11.73;;;6.78;;
69369;SDS011;56530;42.640;23.372;2022-09-09T00:59:27;11.60;;;7.15;;
69369;SDS011;56530;42.640;23.372;2022-09-09T01:02:00;7.40;;;6.70;;
69369;SDS011;56530;42.640;23.372;2022-09-09T01:04:29;6.70;;;6.07;;
69369;SDS011;56530;42.640;23.372;2022-09-09T01:07:09;8.80;;;7.40;;
69369;SDS011;56530;42.640;23.372;2022-09-09T01:09:54;7.30;;;6.60;;
69369;SDS011;56530;42.640;23.372;2022-09-09T01:12:37;8.65;;;6.80;;
69369;SDS011;56530;42.640;23.372;2022-09-09T01:15:13;14.02;;;6.72;;
69369;SDS011;56530;42.640;23.372;2022-09-09T01:17:48;11.30;;;7.07;;
69369;SDS011;56530;42.640;23.372;2022-09-09T01:26:24;10.82;;;7.50;;
69369;SDS011;56530;42.640;23.372;2022-09-09T01:28:55;9.07;;;7.88;;
69369;SDS011;56530;42.640;23.372;2022-09-09T01:31:30;8.18;;;7.38;;
69369;SDS011;56530;42.640;23.372;2022-09-09T01:33:58;8.38;;;7.55;;
69369;SDS011;56530;42.640;23.372;2022-09-09T01:36:38;10.00;;;7.18;;
69369;SDS011;56530;42.640;23.372;2022-09-09T01:39:06;11.32;;;7.82;;
69369;SDS011;56530;42.640;23.372;2022-09-09T01:41:31;10.73;;;7.60;;
69369;SDS011;56530;42.640;23.372;2022-09-09T01:43:57;7.18;;;6.50;;
69369;SDS011;56530;42.640;23.372;2022-09-09T01:46:23;8.50;;;6.88;;
69369;SDS011;56530;42.640;23.372;2022-09-09T01:48:51;9.27;;;6.80;;
69369;SDS011;56530;42.640;23.372;2022-09-09T01:51:17;6.45;;;5.90;;
69369;SDS011;56530;42.640;23.372;2022-09-09T01:53:43;14.07;;;7.25;;
69369;SDS011;56530;42.640;23.372;2022-09-09T01:56:18;8.40;;;6.75;;
69369;SDS011;56530;42.640;23.372;2022-09-09T02:06:47;9.02;;;7.03;;
69369;SDS011;56530;42.640;23.372;2022-09-09T02:09:13;7.75;;;6.95;;
69369;SDS011;56530;42.640;23.372;2022-09-09T02:11:41;13.15;;;8.55;;
69369;SDS011;56530;42.640;23.372;2022-09-09T02:14:10;8.02;;;7.32;;
69369;SDS011;56530;42.640;23.372;2022-09-09T02:16:39;8.95;;;7.78;;
69369;SDS011;56530;42.640;23.372;2022-09-09T02:21:50;10.63;;;7.55;;
69369;SDS011;56530;42.640;23.372;2022-09-09T02:24:18;8.98;;;8.13;;
69369;SDS011;56530;42.640;23.372;2022-09-09T02:26:44;11.75;;;7.82;;
69369;SDS011;56530;42.640;23.372;2022-09-09T02:29:13;8.57;;;7.68;;
69369;SDS011;56530;42.640;23.372;2022-09-09T02:31:41;11.63;;;7.43;;
69369;SDS011;56530;42.640;23.372;2022-09-09T02:34:07;12.77;;;8.02;;
69369;SDS011;56530;42.640;23.372;2022-09-09T02:36:35;10.30;;;7.35;;
69369;SDS011;56530;42.640;23.372;2022-09-09T02:39:02;7.53;;;6.82;;
69369;SDS011;56530;42.640;23.372;2022-09-09T02:41:38;8.63;;;7.80;;
69369;SDS011;56530;42.640;23.372;2022-09-09T02:44:08;14.27;;;7.20;;
69369;SDS011;56530;42.640;23.372;2022-09-09T02:52:00;8.95;;;7.15;;
69369;SDS011;56530;42.640;23.372;2022-09-09T02:54:31;7.35;;;6.72;;
69369;SDS011;56530;42.640;23.372;2022-09-09T02:59:38;9.70;;;7.93;;
69369;SDS011;56530;42.640;23.372;2022-09-09T03:02:04;11.30;;;7.32;;
69369;SDS011;56530;42.640;23.372;2022-09-09T03:04:30;10.50;;;7.43;;
69369;SDS011;56530;42.640;23.372;2022-09-09T03:06:56;9.15;;;8.25;;
69369;SDS011;56530;42.640;23.372;2022-09-09T03:09:22;9.10;;;7.75;;
69369;SDS011;56530;42.640;23.372;2022-09-09T03:11:48;8.93;;;8.02;;
69369;SDS011;56530;42.640;23.372;2022-09-09T03:14:14;9.38;;;8.45;;
69369;SDS011;56530;42.640;23.372;2022-09-09T03:16:40;10.80;;;9.70;;
69369;SDS011;56530;42.640;23.372;2022-09-09T03:19:08;10.25;;;9.35;;
69369;SDS011;56530;42.640;23.372;2022-09-09T03:21:33;11.70;;;8.88;;
69369;SDS011;56530;42.640;23.372;2022-09-09T03:23:59;9.27;;;7.82;;
69369;SDS011;56530;42.640;23.372;2022-09-09T03:26:24;10.57;;;9.43;;
69369;SDS011;56530;42.640;23.372;2022-09-09T03:28:50;11.00;;;8.65;;
69369;SDS011;56530;42.640;23.372;2022-09-09T03:31:17;9.82;;;8.68;;
69369;SDS011;56530;42.640;23.372;2022-09-09T03:33:44;12.55;;;10.40;;
69369;SDS011;56530;42.640;23.372;2022-09-09T03:36:09;11.53;;;10.17;;
69369;SDS011;56530;42.640;23.372;2022-09-09T03:38:35;14.63;;;10.83;;
69369;SDS011;56530;42.640;23.372;2022-09-09T03:41:01;12.70;;;10.45;;
69369;SDS011;56530;42.640;23.372;2022-09-09T03:43:27;13.35;;;9.35;;
69369;SDS011;56530;42.640;23.372;2022-09-09T03:45:53;10.63;;;9.57;;
69369;SDS011;56530;42.640;23.372;2022-09-09T03:48:22;12.47;;;10.80;;
69369;SDS011;56530;42.640;23.372;2022-09-09T03:50:49;12.65;;;10.32;;
69369;SDS011;56530;42.640;23.372;2022-09-09T03:53:16;10.00;;;9.07;;
69369;SDS011;56530;42.640;23.372;2022-09-09T03:55:45;24.48;;;10.48;;
69369;SDS011;56530;42.640;23.372;2022-09-09T03:58:12;16.60;;;9.18;;
69369;SDS011;56530;42.640;23.372;2022-09-09T04:00:38;16.00;;;10.18;;
69369;SDS011;56530;42.640;23.372;2022-09-09T04:03:07;13.00;;;9.18;;
69369;SDS011;56530;42.640;23.372;2022-09-09T04:05:33;11.07;;;10.07;;
69369;SDS011;56530;42.640;23.372;2022-09-09T04:07:59;12.38;;;9.82;;
69369;SDS011;56530;42.640;23.372;2022-09-09T04:10:24;14.90;;;10.15;;
69369;SDS011;56530;42.640;23.372;2022-09-09T04:12:50;15.70;;;10.95;;
69369;SDS011;56530;42.640;23.372;2022-09-09T04:15:15;14.85;;;9.32;;
69369;SDS011;56530;42.640;23.372;2022-09-09T04:17:43;13.60;;;9.68;;
69369;SDS011;56530;42.640;23.372;2022-09-09T04:20:08;11.25;;;9.02;;
69369;SDS011;56530;42.640;23.372;2022-09-09T04:22:37;14.40;;;9.55;;
69369;SDS011;56530;42.640;23.372;2022-09-09T04:25:04;13.70;;;10.13;;
69369;SDS011;56530;42.640;23.372;2022-09-09T04:27:30;11.65;;;8.82;;
69369;SDS011;56530;42.640;23.372;2022-09-09T04:29:56;12.07;;;9.45;;
69369;SDS011;56530;42.640;23.372;2022-09-09T04:32:22;11.90;;;9.43;;
69369;SDS011;56530;42.640;23.372;2022-09-09T04:34:48;16.80;;;9.15;;
69369;SDS011;56530;42.640;23.372;2022-09-09T04:37:13;16.23;;;9.15;;
69369;SDS011;56530;42.640;23.372;2022-09-09T04:39:42;12.88;;;9.43;;
69369;SDS011;56530;42.640;23.372;2022-09-09T04:42:07;11.23;;;8.23;;
69369;SDS011;56530;42.640;23.372;2022-09-09T04:44:32;10.32;;;8.30;;
69369;SDS011;56530;42.640;23.372;2022-09-09T04:46:58;16.98;;;10.13;;
69369;SDS011;56530;42.640;23.372;2022-09-09T04:49:23;14.33;;;10.47;;
69369;SDS011;56530;42.640;23.372;2022-09-09T04:51:49;14.23;;;10.60;;
69369;SDS011;56530;42.640;23.372;2022-09-09T04:54:14;14.80;;;10.60;;
69369;SDS011;56530;42.640;23.372;2022-09-09T04:56:40;14.87;;;9.73;;
69369;SDS011;56530;42.640;23.372;2022-09-09T04:59:07;9.82;;;8.38;;
69369;SDS011;56530;42.640;23.372;2022-09-09T05:01:32;7.93;;;7.07;;
69369;SDS011;56530;42.640;23.372;2022-09-09T05:03:58;12.68;;;6.43;;
69369;SDS011;56530;42.640;23.372;2022-09-09T05:06:24;6.63;;;5.95;;
69369;SDS011;56530;42.640;23.372;2022-09-09T05:08:50;13.50;;;5.57;;
69369;SDS011;56530;42.640;23.372;2022-09-09T05:11:16;8.95;;;5.40;;
69369;SDS011;56530;42.640;23.372;2022-09-09T05:13:43;5.68;;;5.10;;
69369;SDS011;56530;42.640;23.372;2022-09-09T05:16:09;6.78;;;5.40;;
69369;SDS011;56530;42.640;23.372;2022-09-09T05:18:36;8.57;;;6.18;;
69369;SDS011;56530;42.640;23.372;2022-09-09T05:21:03;7.28;;;5.75;;
69369;SDS011;56530;42.640;23.372;2022-09-09T05:23:28;6.35;;;5.47;;
69369;SDS011;56530;42.640;23.372;2022-09-09T05:25:57;6.90;;;5.75;;
69369;SDS011;56530;42.640;23.372;2022-09-09T05:28:26;6.90;;;5.78;;
69369;SDS011;56530;42.640;23.372;2022-09-09T05:30:55;7.40;;;5.72;;
69369;SDS011;56530;42.640;23.372;2022-09-09T05:33:22;12.48;;;6.55;;
69369;SDS011;56530;42.640;23.372;2022-09-09T05:35:54;9.43;;;5.93;;
69369;SDS011;56530;42.640;23.372;2022-09-09T05:38:28;10.00;;;5.70;;
69369;SDS011;56530;42.640;23.372;2022-09-09T05:40:54;8.23;;;5.90;;
69369;SDS011;56530;42.640;23.372;2022-09-09T05:43:19;7.33;;;5.80;;
69369;SDS011;56530;42.640;23.372;2022-09-09T05:45:48;6.40;;;5.73;;
69369;SDS011;56530;42.640;23.372;2022-09-09T05:48:30;11.63;;;6.57;;
69369;SDS011;56530;42.640;23.372;2022-09-09T05:50:57;9.17;;;6.43;;
69369;SDS011;56530;42.640;23.372;2022-09-09T05:53:23;7.65;;;5.82;;
69369;SDS011;56530;42.640;23.372;2022-09-09T05:55:48;14.90;;;5.97;;
69369;SDS011;56530;42.640;23.372;2022-09-09T05:58:15;8.85;;;5.18;;
69369;SDS011;56530;42.640;23.372;2022-09-09T06:00:42;8.00;;;5.50;;
69369;SDS011;56530;42.640;23.372;2022-09-09T06:03:12;6.05;;;5.25;;
69369;SDS011;56530;42.640;23.372;2022-09-09T06:05:37;7.95;;;5.95;;
69369;SDS011;56530;42.640;23.372;2022-09-09T06:08:03;9.13;;;5.90;;
69369;SDS011;56530;42.640;23.372;2022-09-09T06:10:28;9.03;;;6.33;;
69369;SDS011;56530;42.640;23.372;2022-09-09T06:12:54;11.17;;;6.37;;
69369;SDS011;56530;42.640;23.372;2022-09-09T06:15:19;10.05;;;5.97;;
69369;SDS011;56530;42.640;23.372;2022-09-09T06:17:45;8.30;;;6.30;;
69369;SDS011;56530;42.640;23.372;2022-09-09T06:20:10;13.03;;;6.50;;
69369;SDS011;56530;42.640;23.372;2022-09-09T06:22:39;7.80;;;6.53;;
69369;SDS011;56530;42.640;23.372;2022-09-09T06:25:05;10.25;;;6.60;;
69369;SDS011;56530;42.640;23.372;2022-09-09T06:27:32;7.00;;;6.30;;
69369;SDS011;56530;42.640;23.372;2022-09-09T06:29:58;8.23;;;6.50;;
69369;SDS011;56530;42.640;23.372;2022-09-09T06:32:23;8.83;;;6.87;;
69369;SDS011;56530;42.640;23.372;2022-09-09T06:34:48;7.57;;;6.53;;
69369;SDS011;56530;42.640;23.372;2022-09-09T06:37:14;12.23;;;6.40;;
69369;SDS011;56530;42.640;23.372;2022-09-09T06:39:40;11.32;;;7.07;;
69369;SDS011;56530;42.640;23.372;2022-09-09T06:42:05;12.03;;;6.57;;
69369;SDS011;56530;42.640;23.372;2022-09-09T06:44:32;9.38;;;6.65;;
69369;SDS011;56530;42.640;23.372;2022-09-09T06:46:58;9.38;;;6.55;;
69369;SDS011;56530;42.640;23.372;2022-09-09T06:49:24;13.48;;;7.25;;
69369;SDS011;56530;42.640;23.372;2022-09-09T06:51:50;10.93;;;6.37;;
69369;SDS011;56530;42.640;23.372;2022-09-09T06:54:17;9.33;;;6.93;;
69369;SDS011;56530;42.640;23.372;2022-09-09T06:56:43;10.40;;;7.18;;
69369;SDS011;56530;42.640;23.372;2022-09-09T06:59:10;12.18;;;7.10;;
69369;SDS011;56530;42.640;23.372;2022-09-09T07:01:40;12.87;;;7.73;;
69369;SDS011;56530;42.640;23.372;2022-09-09T07:04:08;14.87;;;7.80;;
69369;SDS011;56530;42.640;23.372;2022-09-09T07:06:39;14.00;;;8.15;;
69369;SDS011;56530;42.640;23.372;2022-09-09T07:09:09;11.68;;;8.05;;
69369;SDS011;56530;42.640;23.372;2022-09-09T07:11:43;9.60;;;7.00;;
69369;SDS011;56530;42.640;23.372;2022-09-09T07:14:09;10.07;;;7.13;;
69369;SDS011;56530;42.640;23.372;2022-09-09T07:16:39;11.75;;;7.30;;
69369;SDS011;56530;42.640;23.372;2022-09-09T07:19:08;11.80;;;7.45;;
69369;SDS011;56530;42.640;23.372;2022-09-09T07:21:34;13.00;;;8.02;;
69369;SDS011;56530;42.640;23.372;2022-09-09T07:23:59;9.68;;;7.03;;
69369;SDS011;56530;42.640;23.372;2022-09-09T07:26:26;12.13;;;7.72;;
69369;SDS011;56530;42.640;23.372;2022-09-09T07:28:54;9.00;;;7.03;;
69369;SDS011;56530;42.640;23.372;2022-09-09T07:31:25;14.73;;;7.45;;
69369;SDS011;56530;42.640;23.372;2022-09-09T07:34:01;12.68;;;8.75;;
69369;SDS011;56530;42.640;23.372;2022-09-09T07:36:29;12.95;;;7.68;;
69369;SDS011;56530;42.640;23.372;2022-09-09T07:38:57;9.10;;;7.53;;
69369;SDS011;56530;42.640;23.372;2022-09-09T07:41:34;11.23;;;7.45;;
69369;SDS011;56530;42.640;23.372;2022-09-09T07:44:08;12.57;;;7.05;;
69369;SDS011;56530;42.640;23.372;2022-09-09T07:46:36;10.05;;;6.88;;
69369;SDS011;56530;42.640;23.372;2022-09-09T07:49:02;11.87;;;7.20;;
69369;SDS011;56530;42.640;23.372;2022-09-09T07:51:29;13.87;;;7.87;;
69369;SDS011;56530;42.640;23.372;2022-09-09T07:54:02;15.90;;;7.40;;
69369;SDS011;56530;42.640;23.372;2022-09-09T07:56:30;12.83;;;6.67;;
69369;SDS011;56530;42.640;23.372;2022-09-09T07:58:56;10.48;;;7.20;;
69369;SDS011;56530;42.640;23.372;2022-09-09T08:01:44;8.63;;;5.82;;
69369;SDS011;56530;42.640;23.372;2022-09-09T08:04:11;9.88;;;6.80;;
69369;SDS011;56530;42.640;23.372;2022-09-09T08:06:46;12.82;;;7.57;;
69369;SDS011;56530;42.640;23.372;2022-09-09T08:09:14;10.70;;;6.78;;
69369;SDS011;56530;42.640;23.372;2022-09-09T08:11:40;11.05;;;6.88;;
69369;SDS011;56530;42.640;23.372;2022-09-09T08:14:06;9.75;;;6.63;;
69369;SDS011;56530;42.640;23.372;2022-09-09T08:16:33;11.50;;;6.15;;
69369;SDS011;56530;42.640;23.372;2022-09-09T08:19:02;8.65;;;6.18;;
69369;SDS011;56530;42.640;23.372;2022-09-09T08:21:28;9.30;;;6.20;;
69369;SDS011;56530;42.640;23.372;2022-09-09T08:23:56;10.02;;;6.47;;
69369;SDS011;56530;42.640;23.372;2022-09-09T08:26:23;12.27;;;6.40;;
69369;SDS011;56530;42.640;23.372;2022-09-09T08:28:50;9.85;;;6.00;;
69369;SDS011;56530;42.640;23.372;2022-09-09T08:31:20;9.55;;;6.25;;
69369;SDS011;56530;42.640;23.372;2022-09-09T08:33:54;10.07;;;6.30;;
69369;SDS011;56530;42.640;23.372;2022-09-09T08:36:22;11.23;;;6.07;;
69369;SDS011;56530;42.640;23.372;2022-09-09T08:38:51;9.68;;;6.22;;
69369;SDS011;56530;42.640;23.372;2022-09-09T08:46:34;10.97;;;5.97;;
69369;SDS011;56530;42.640;23.372;2022-09-09T08:52:03;11.43;;;6.03;;
69369;SDS011;56530;42.640;23.372;2022-09-09T08:54:37;10.77;;;6.20;;
69369;SDS011;56530;42.640;23.372;2022-09-09T08:57:03;9.68;;;5.95;;
69369;SDS011;56530;42.640;23.372;2022-09-09T08:59:30;7.50;;;5.63;;
69369;SDS011;56530;42.640;23.372;2022-09-09T09:09:57;9.13;;;5.82;;
69369;SDS011;56530;42.640;23.372;2022-09-09T09:12:44;11.15;;;6.38;;
69369;SDS011;56530;42.640;23.372;2022-09-09T09:15:21;10.40;;;6.60;;
69369;SDS011;56530;42.640;23.372;2022-09-09T09:17:50;13.93;;;6.22;;
69369;SDS011;56530;42.640;23.372;2022-09-09T09:20:16;13.13;;;6.03;;
69369;SDS011;56530;42.640;23.372;2022-09-09T09:22:48;11.40;;;6.10;;
69369;SDS011;56530;42.640;23.372;2022-09-09T09:25:31;12.23;;;5.70;;
69369;SDS011;56530;42.640;23.372;2022-09-09T09:28:17;7.63;;;6.00;;
69369;SDS011;56530;42.640;23.372;2022-09-09T09:30:52;8.80;;;6.03;;
69369;SDS011;56530;42.640;23.372;2022-09-09T09:35:54;13.25;;;6.75;;
69369;SDS011;56530;42.640;23.372;2022-09-09T09:40:54;8.35;;;5.95;;
69369;SDS011;56530;42.640;23.372;2022-09-09T09:46:04;10.50;;;5.78;;
69369;SDS011;56530;42.640;23.372;2022-09-09T09:48:30;15.87;;;6.50;;
69369;SDS011;56530;42.640;23.372;2022-09-09T09:50:59;10.13;;;6.20;;
69369;SDS011;56530;42.640;23.372;2022-09-09T09:56:01;16.40;;;7.15;;
69369;SDS011;56530;42.640;23.372;2022-09-09T09:58:32;10.20;;;6.72;;
69369;SDS011;56530;42.640;23.372;2022-09-09T10:00:59;12.60;;;6.55;;
69369;SDS011;56530;42.640;23.372;2022-09-09T10:03:29;12.35;;;6.50;;
69369;SDS011;56530;42.640;23.372;2022-09-09T10:05:56;8.50;;;6.38;;
69369;SDS011;56530;42.640;23.372;2022-09-09T10:08:26;11.07;;;6.25;;
69369;SDS011;56530;42.640;23.372;2022-09-09T10:19:34;9.75;;;6.50;;
69369;SDS011;56530;42.640;23.372;2022-09-09T10:27:40;13.05;;;7.88;;
69369;SDS011;56530;42.640;23.372;2022-09-09T10:36:12;13.27;;;7.07;;
69369;SDS011;56530;42.640;23.372;2022-09-09T10:38:40;43.15;;;10.57;;
69369;SDS011;56530;42.640;23.372;2022-09-09T10:41:12;22.98;;;8.23;;
69369;SDS011;56530;42.640;23.372;2022-09-09T10:46:42;10.73;;;6.78;;
69369;SDS011;56530;42.640;23.372;2022-09-09T10:52:04;9.60;;;7.55;;
69369;SDS011;56530;42.640;23.372;2022-09-09T10:57:33;8.13;;;7.03;;
69369;SDS011;56530;42.640;23.372;2022-09-09T11:00:04;12.25;;;7.15;;
69369;SDS011;56530;42.640;23.372;2022-09-09T11:02:33;12.90;;;7.43;;
69369;SDS011;56530;42.640;23.372;2022-09-09T11:12:50;9.52;;;7.82;;
69369;SDS011;56530;42.640;23.372;2022-09-09T11:15:29;14.15;;;7.63;;
69369;SDS011;56530;42.640;23.372;2022-09-09T11:17:59;9.23;;;6.60;;
69369;SDS011;56530;42.640;23.372;2022-09-09T11:20:27;13.50;;;7.40;;
69369;SDS011;56530;42.640;23.372;2022-09-09T11:22:55;10.40;;;7.30;;
69369;SDS011;56530;42.640;23.372;2022-09-09T11:25:39;10.32;;;7.38;;
69369;SDS011;56530;42.640;23.372;2022-09-09T11:33:37;11.20;;;7.50;;
69369;SDS011;56530;42.640;23.372;2022-09-09T11:36:41;15.30;;;7.50;;
69369;SDS011;56530;42.640;23.372;2022-09-09T11:41:38;11.27;;;7.57;;
69369;SDS011;56530;42.640;23.372;2022-09-09T11:44:37;10.00;;;7.00;;
69369;SDS011;56530;42.640;23.372;2022-09-09T11:46:56;11.33;;;7.23;;
69369;SDS011;56530;42.640;23.372;2022-09-09T11:49:28;13.23;;;7.50;;
69369;SDS011;56530;42.640;23.372;2022-09-09T11:51:56;12.50;;;8.10;;
69369;SDS011;56530;42.640;23.372;2022-09-09T11:54:29;10.27;;;8.13;;
69369;SDS011;56530;42.640;23.372;2022-09-09T11:56:56;11.25;;;7.38;;
69369;SDS011;56530;42.640;23.372;2022-09-09T11:59:23;13.35;;;7.45;;
69369;SDS011;56530;42.640;23.372;2022-09-09T12:10:05;15.93;;;7.93;;
69369;SDS011;56530;42.640;23.372;2022-09-09T12:12:44;14.25;;;8.35;;
69369;SDS011;56530;42.640;23.372;2022-09-09T12:17:45;12.70;;;8.30;;
69369;SDS011;56530;42.640;23.372;2022-09-09T12:20:19;13.80;;;9.37;;
69369;SDS011;56530;42.640;23.372;2022-09-09T12:22:51;16.67;;;8.23;;
69369;SDS011;56530;42.640;23.372;2022-09-09T12:28:02;15.48;;;8.50;;
69369;SDS011;56530;42.640;23.372;2022-09-09T12:30:30;17.40;;;9.10;;
69369;SDS011;56530;42.640;23.372;2022-09-09T12:33:01;14.25;;;8.40;;
69369;SDS011;56530;42.640;23.372;2022-09-09T12:35:27;13.32;;;8.48;;
69369;SDS011;56530;42.640;23.372;2022-09-09T12:37:55;12.88;;;8.18;;
69369;SDS011;56530;42.640;23.372;2022-09-09T12:40:27;16.65;;;9.27;;
69369;SDS011;56530;42.640;23.372;2022-09-09T12:43:00;11.67;;;8.57;;
69369;SDS011;56530;42.640;23.372;2022-09-09T12:45:26;13.20;;;8.10;;
69369;SDS011;56530;42.640;23.372;2022-09-09T12:47:59;12.63;;;8.73;;
69369;SDS011;56530;42.640;23.372;2022-09-09T12:50:26;16.67;;;7.78;;
69369;SDS011;56530;42.640;23.372;2022-09-09T12:52:55;14.03;;;8.13;;
69369;SDS011;56530;42.640;23.372;2022-09-09T12:55:34;16.33;;;8.65;;
69369;SDS011;56530;42.640;23.372;2022-09-09T12:58:02;11.07;;;8.43;;
69369;SDS011;56530;42.640;23.372;2022-09-09T13:00:32;14.45;;;9.05;;
69369;SDS011;56530;42.640;23.372;2022-09-09T13:02:59;16.50;;;9.02;;
69369;SDS011;56530;42.640;23.372;2022-09-09T13:05:27;14.45;;;8.77;;
69369;SDS011;56530;42.640;23.372;2022-09-09T13:08:02;14.95;;;8.88;;
69369;SDS011;56530;42.640;23.372;2022-09-09T13:10:31;13.50;;;8.00;;
69369;SDS011;56530;42.640;23.372;2022-09-09T13:13:01;13.52;;;8.02;;
69369;SDS011;56530;42.640;23.372;2022-09-09T13:15:28;17.80;;;8.73;;
69369;SDS011;56530;42.640;23.372;2022-09-09T13:17:58;13.83;;;7.90;;
69369;SDS011;56530;42.640;23.372;2022-09-09T13:20:28;16.40;;;8.30;;
69369;SDS011;56530;42.640;23.372;2022-09-09T13:22:54;14.27;;;8.65;;
69369;SDS011;56530;42.640;23.372;2022-09-09T13:25:24;16.55;;;8.40;;
69369;SDS011;56530;42.640;23.372;2022-09-09T13:33:04;13.25;;;8.75;;
69369;SDS011;56530;42.640;23.372;2022-09-09T13:35:31;15.50;;;7.88;;
69369;SDS011;56530;42.640;23.372;2022-09-09T13:37:57;13.95;;;8.00;;
69369;SDS011;56530;42.640;23.372;2022-09-09T13:40:24;15.02;;;8.32;;
69369;SDS011;56530;42.640;23.372;2022-09-09T13:42:56;14.90;;;8.18;;
69369;SDS011;56530;42.640;23.372;2022-09-09T13:45:24;19.17;;;9.18;;
69369;SDS011;56530;42.640;23.372;2022-09-09T13:47:53;12.88;;;9.25;;
69369;SDS011;56530;42.640;23.372;2022-09-09T13:50:27;16.13;;;9.32;;
69369;SDS011;56530;42.640;23.372;2022-09-09T13:52:57;18.30;;;9.40;;
69369;SDS011;56530;42.640;23.372;2022-09-09T13:55:24;13.93;;;8.80;;
69369;SDS011;56530;42.640;23.372;2022-09-09T13:57:58;15.82;;;9.00;;
69369;SDS011;56530;42.640;23.372;2022-09-09T14:00:26;13.00;;;8.63;;
69369;SDS011;56530;42.640;23.372;2022-09-09T14:02:52;17.05;;;8.50;;
69369;SDS011;56530;42.640;23.372;2022-09-09T14:05:19;18.58;;;8.93;;
69369;SDS011;56530;42.640;23.372;2022-09-09T14:07:47;12.50;;;8.25;;
69369;SDS011;56530;42.640;23.372;2022-09-09T14:10:12;17.60;;;8.85;;
69369;SDS011;56530;42.640;23.372;2022-09-09T14:12:38;16.70;;;9.10;;
69369;SDS011;56530;42.640;23.372;2022-09-09T14:15:04;15.95;;;8.85;;
69369;SDS011;56530;42.640;23.372;2022-09-09T14:17:31;20.70;;;9.50;;
69369;SDS011;56530;42.640;23.372;2022-09-09T14:19:57;16.98;;;8.77;;
69369;SDS011;56530;42.640;23.372;2022-09-09T14:22:22;14.90;;;8.75;;
69369;SDS011;56530;42.640;23.372;2022-09-09T14:24:48;14.43;;;8.03;;
69369;SDS011;56530;42.640;23.372;2022-09-09T14:27:14;19.20;;;9.23;;
69369;SDS011;56530;42.640;23.372;2022-09-09T14:29:40;16.17;;;8.73;;
69369;SDS011;56530;42.640;23.372;2022-09-09T14:32:05;15.70;;;8.77;;
69369;SDS011;56530;42.640;23.372;2022-09-09T14:34:31;19.13;;;8.53;;
69369;SDS011;56530;42.640;23.372;2022-09-09T14:36:57;16.50;;;8.73;;
69369;SDS011;56530;42.640;23.372;2022-09-09T14:39:23;17.63;;;8.65;;
69369;SDS011;56530;42.640;23.372;2022-09-09T14:41:48;15.07;;;8.02;;
69369;SDS011;56530;42.640;23.372;2022-09-09T14:44:14;13.97;;;8.60;;
69369;SDS011;56530;42.640;23.372;2022-09-09T14:46:41;15.93;;;8.85;;
69369;SDS011;56530;42.640;23.372;2022-09-09T14:49:07;17.73;;;8.50;;
69369;SDS011;56530;42.640;23.372;2022-09-09T14:51:32;15.93;;;8.00;;
69369;SDS011;56530;42.640;23.372;2022-09-09T14:53:59;17.65;;;8.88;;
69369;SDS011;56530;42.640;23.372;2022-09-09T14:56:26;16.77;;;8.90;;
69369;SDS011;56530;42.640;23.372;2022-09-09T14:58:53;13.57;;;9.00;;
69369;SDS011;56530;42.640;23.372;2022-09-09T15:01:23;20.48;;;9.30;;
69369;SDS011;56530;42.640;23.372;2022-09-09T15:03:56;17.42;;;8.90;;
69369;SDS011;56530;42.640;23.372;2022-09-09T15:06:26;15.02;;;8.80;;
69369;SDS011;56530;42.640;23.372;2022-09-09T15:08:54;13.40;;;8.68;;
69369;SDS011;56530;42.640;23.372;2022-09-09T15:11:22;17.07;;;10.27;;
69369;SDS011;56530;42.640;23.372;2022-09-09T15:13:50;17.40;;;8.68;;
69369;SDS011;56530;42.640;23.372;2022-09-09T15:16:18;15.13;;;8.67;;
69369;SDS011;56530;42.640;23.372;2022-09-09T15:18:44;13.63;;;8.25;;
69369;SDS011;56530;42.640;23.372;2022-09-09T15:21:15;18.73;;;9.02;;
69369;SDS011;56530;42.640;23.372;2022-09-09T15:23:44;17.85;;;9.15;;
69369;SDS011;56530;42.640;23.372;2022-09-09T15:26:10;15.03;;;8.40;;
69369;SDS011;56530;42.640;23.372;2022-09-09T15:28:37;12.02;;;7.75;;
69369;SDS011;56530;42.640;23.372;2022-09-09T15:33:32;21.95;;;9.52;;
69369;SDS011;56530;42.640;23.372;2022-09-09T15:35:58;14.90;;;8.70;;
69369;SDS011;56530;42.640;23.372;2022-09-09T15:38:24;15.57;;;9.27;;
69369;SDS011;56530;42.640;23.372;2022-09-09T15:40:53;14.10;;;8.63;;
69369;SDS011;56530;42.640;23.372;2022-09-09T15:43:20;15.63;;;9.23;;
69369;SDS011;56530;42.640;23.372;2022-09-09T15:45:46;14.52;;;9.20;;
69369;SDS011;56530;42.640;23.372;2022-09-09T15:48:14;12.88;;;9.15;;
69369;SDS011;56530;42.640;23.372;2022-09-09T15:50:39;18.05;;;9.20;;
69369;SDS011;56530;42.640;23.372;2022-09-09T15:53:05;14.47;;;9.73;;
69369;SDS011;56530;42.640;23.372;2022-09-09T15:55:31;15.68;;;8.63;;
69369;SDS011;56530;42.640;23.372;2022-09-09T15:57:56;14.70;;;9.05;;
69369;SDS011;56530;42.640;23.372;2022-09-09T16:00:22;14.57;;;9.55;;
69369;SDS011;56530;42.640;23.372;2022-09-09T16:02:48;14.83;;;9.60;;
69369;SDS011;56530;42.640;23.372;2022-09-09T16:05:14;14.53;;;8.73;;
69369;SDS011;56530;42.640;23.372;2022-09-09T16:07:39;17.27;;;9.63;;
69369;SDS011;56530;42.640;23.372;2022-09-09T16:10:05;17.13;;;9.67;;
69369;SDS011;56530;42.640;23.372;2022-09-09T16:12:31;20.03;;;9.97;;
69369;SDS011;56530;42.640;23.372;2022-09-09T16:14:56;19.03;;;9.27;;
69369;SDS011;56530;42.640;23.372;2022-09-09T16:17:21;16.33;;;9.83;;
69369;SDS011;56530;42.640;23.372;2022-09-09T16:19:47;15.37;;;9.10;;
69369;SDS011;56530;42.640;23.372;2022-09-09T16:22:12;33.80;;;28.40;;
69369;SDS011;56530;42.640;23.372;2022-09-09T16:24:40;27.98;;;19.95;;
69369;SDS011;56530;42.640;23.372;2022-09-09T16:27:05;19.10;;;13.27;;
69369;SDS011;56530;42.640;23.372;2022-09-09T16:29:31;25.10;;;12.30;;
69369;SDS011;56530;42.640;23.372;2022-09-09T16:31:57;18.73;;;9.90;;
69369;SDS011;56530;42.640;23.372;2022-09-09T16:34:23;17.83;;;10.77;;
69369;SDS011;56530;42.640;23.372;2022-09-09T16:36:50;16.52;;;8.95;;
69369;SDS011;56530;42.640;23.372;2022-09-09T16:39:17;20.17;;;8.90;;
69369;SDS011;56530;42.640;23.372;2022-09-09T16:41:44;15.57;;;9.88;;
69369;SDS011;56530;42.640;23.372;2022-09-09T16:44:11;17.17;;;8.75;;
69369;SDS011;56530;42.640;23.372;2022-09-09T16:46:38;17.88;;;8.98;;
69369;SDS011;56530;42.640;23.372;2022-09-09T16:49:06;17.42;;;9.48;;
69369;SDS011;56530;42.640;23.372;2022-09-09T16:51:37;18.98;;;9.60;;